sensor_id;sensor_type;location;lat;lon;timestamp;pressure;altitude;pressure_sealevel;temperature;humidity
3544;BME280;1786;52.870;9.578;2023-02-05T00:00:42;102826.63;;;7.78;58.72
3544;BME280;1786;52.870;9.578;2023-02-05T00:03:08;102822.16;;;7.83;57.90
3544;BME280;1786;52.870;9.578;2023-02-05T00:05:35;102813.75;;;7.61;58.88
3544;BME280;1786;52.870;9.578;2023-02-05T00:08:02;102809.84;;;7.84;58.43
3544;BME280;1786;52.870;9.578;2023-02-05T00:10:28;102814.56;;;7.65;58.72
3544;BME280;1786;52.870;9.578;2023-02-05T00:12:55;102821.75;;;7.52;58.86
3544;BME280;1786;52.870;9.578;2023-02-05T00:15:21;102822.47;;;7.63;58.61
3544;BME280;1786;52.870;9.578;2023-02-05T00:17:48;102804.38;;;7.40;59.17
3544;BME280;1786;52.870;9.578;2023-02-05T00:20:15;102809.81;;;7.29;59.42
3544;BME280;1786;52.870;9.578;2023-02-05T00:22:41;102785.91;;;7.45;59.41
3544;BME280;1786;52.870;9.578;2023-02-05T00:25:08;102787.38;;;7.02;60.32
3544;BME280;1786;52.870;9.578;2023-02-05T00:27:35;102791.28;;;7.39;59.64
3544;BME280;1786;52.870;9.578;2023-02-05T00:30:01;102794.72;;;7.42;59.43
3544;BME280;1786;52.870;9.578;2023-02-05T00:32:28;102792.25;;;7.31;59.47
3544;BME280;1786;52.870;9.578;2023-02-05T00:34:55;102785.09;;;6.75;60.99
3544;BME280;1786;52.870;9.578;2023-02-05T00:37:22;102771.44;;;6.42;62.01
3544;BME280;1786;52.870;9.578;2023-02-05T00:39:49;102766.25;;;6.37;62.03
3544;BME280;1786;52.870;9.578;2023-02-05T00:42:15;102760.03;;;6.46;62.45
3544;BME280;1786;52.870;9.578;2023-02-05T00:44:42;102764.56;;;6.33;62.54
3544;BME280;1786;52.870;9.578;2023-02-05T00:47:08;102766.34;;;6.28;62.82
3544;BME280;1786;52.870;9.578;2023-02-05T00:49:35;102767.91;;;6.44;62.56
3544;BME280;1786;52.870;9.578;2023-02-05T00:52:02;102760.22;;;6.29;62.76
3544;BME280;1786;52.870;9.578;2023-02-05T00:54:30;102758.31;;;6.42;62.12
3544;BME280;1786;52.870;9.578;2023-02-05T00:56:57;102742.00;;;6.12;63.50
3544;BME280;1786;52.870;9.578;2023-02-05T00:59:23;102733.34;;;6.05;63.20
3544;BME280;1786;52.870;9.578;2023-02-05T01:01:50;102742.28;;;5.77;64.03
3544;BME280;1786;52.870;9.578;2023-02-05T01:04:19;102733.38;;;6.02;63.96
3544;BME280;1786;52.870;9.578;2023-02-05T01:06:46;102722.75;;;6.12;63.25
3544;BME280;1786;52.870;9.578;2023-02-05T01:09:12;102724.13;;;6.46;62.53
3544;BME280;1786;52.870;9.578;2023-02-05T01:11:39;102715.66;;;6.96;60.78
3544;BME280;1786;52.870;9.578;2023-02-05T01:14:05;102706.06;;;6.91;60.96
3544;BME280;1786;52.870;9.578;2023-02-05T01:16:32;102709.47;;;6.97;61.14
3544;BME280;1786;52.870;9.578;2023-02-05T01:18:59;102710.19;;;7.08;60.79
3544;BME280;1786;52.870;9.578;2023-02-05T01:21:25;102710.19;;;7.09;60.74
3544;BME280;1786;52.870;9.578;2023-02-05T01:23:52;102692.28;;;6.74;61.28
3544;BME280;1786;52.870;9.578;2023-02-05T01:26:20;102694.28;;;6.54;61.88
3544;BME280;1786;52.870;9.578;2023-02-05T01:28:46;102698.06;;;6.98;61.13
3544;BME280;1786;52.870;9.578;2023-02-05T01:31:13;102692.84;;;6.96;60.66
3544;BME280;1786;52.870;9.578;2023-02-05T01:33:40;102691.56;;;6.60;61.53
3544;BME280;1786;52.870;9.578;2023-02-05T01:36:07;102680.97;;;5.90;63.57
3544;BME280;1786;52.870;9.578;2023-02-05T01:38:34;102683.56;;;5.93;63.56
3544;BME280;1786;52.870;9.578;2023-02-05T01:41:00;102672.81;;;6.21;62.92
3544;BME280;1786;52.870;9.578;2023-02-05T01:43:27;102673.19;;;6.63;61.81
3544;BME280;1786;52.870;9.578;2023-02-05T01:46:03;102664.44;;;6.59;61.84
3544;BME280;1786;52.870;9.578;2023-02-05T01:48:39;102663.72;;;7.11;60.46
3544;BME280;1786;52.870;9.578;2023-02-05T01:51:10;102671.09;;;6.86;60.65
3544;BME280;1786;52.870;9.578;2023-02-05T01:53:39;102677.78;;;7.09;60.27
3544;BME280;1786;52.870;9.578;2023-02-05T01:56:10;102676.91;;;7.08;60.21
3544;BME280;1786;52.870;9.578;2023-02-05T01:58:45;102684.44;;;7.31;59.91
3544;BME280;1786;52.870;9.578;2023-02-05T02:01:14;102674.41;;;6.98;60.14
3544;BME280;1786;52.870;9.578;2023-02-05T02:03:40;102674.41;;;7.01;60.45
3544;BME280;1786;52.870;9.578;2023-02-05T02:06:08;102667.31;;;6.41;61.80
3544;BME280;1786;52.870;9.578;2023-02-05T02:08:35;102663.91;;;6.98;60.79
3544;BME280;1786;52.870;9.578;2023-02-05T02:11:03;102665.50;;;7.09;60.30
3544;BME280;1786;52.870;9.578;2023-02-05T02:13:32;102657.44;;;7.20;59.83
3544;BME280;1786;52.870;9.578;2023-02-05T02:16:04;102647.63;;;7.30;59.63
3544;BME280;1786;52.870;9.578;2023-02-05T02:18:33;102653.28;;;7.05;60.08
3544;BME280;1786;52.870;9.578;2023-02-05T02:21:21;102651.50;;;7.07;60.23
3544;BME280;1786;52.870;9.578;2023-02-05T02:29:22;102630.75;;;6.90;60.15
3544;BME280;1786;52.870;9.578;2023-02-05T02:31:56;102636.69;;;7.03;60.65
3544;BME280;1786;52.870;9.578;2023-02-05T02:34:31;102629.28;;;6.71;60.37
3544;BME280;1786;52.870;9.578;2023-02-05T02:37:13;102636.56;;;6.50;61.08
3544;BME280;1786;52.870;9.578;2023-02-05T02:39:53;102641.34;;;6.83;60.76
3544;BME280;1786;52.870;9.578;2023-02-05T02:42:38;102653.50;;;6.90;60.50
3544;BME280;1786;52.870;9.578;2023-02-05T02:45:09;102660.22;;;7.11;60.40
3544;BME280;1786;52.870;9.578;2023-02-05T02:47:46;102655.09;;;7.02;59.85
3544;BME280;1786;52.870;9.578;2023-02-05T02:50:25;102660.22;;;7.09;59.78
3544;BME280;1786;52.870;9.578;2023-02-05T02:53:02;102646.59;;;7.40;58.91
3544;BME280;1786;52.870;9.578;2023-02-05T02:55:33;102642.97;;;7.46;59.00
3544;BME280;1786;52.870;9.578;2023-02-05T02:58:04;102641.09;;;7.54;59.21
3544;BME280;1786;52.870;9.578;2023-02-05T03:00:32;102631.47;;;7.53;58.84
3544;BME280;1786;52.870;9.578;2023-02-05T03:03:02;102630.72;;;7.46;58.93
3544;BME280;1786;52.870;9.578;2023-02-05T03:05:32;102640.25;;;7.52;58.92
3544;BME280;1786;52.870;9.578;2023-02-05T03:08:06;102640.31;;;7.49;58.87
3544;BME280;1786;52.870;9.578;2023-02-05T03:10:41;102635.00;;;7.52;59.43
3544;BME280;1786;52.870;9.578;2023-02-05T03:13:12;102625.75;;;7.29;59.91
3544;BME280;1786;52.870;9.578;2023-02-05T03:15:44;102611.25;;;7.04;60.38
3544;BME280;1786;52.870;9.578;2023-02-05T03:18:13;102615.00;;;6.90;61.24
3544;BME280;1786;52.870;9.578;2023-02-05T03:20:55;102621.34;;;6.74;61.55
3544;BME280;1786;52.870;9.578;2023-02-05T03:23:22;102609.38;;;7.12;61.00
3544;BME280;1786;52.870;9.578;2023-02-05T03:25:50;102608.72;;;6.99;60.85
3544;BME280;1786;52.870;9.578;2023-02-05T03:28:21;102595.69;;;6.91;61.61
3544;BME280;1786;52.870;9.578;2023-02-05T03:36:57;102580.03;;;6.84;62.00
3544;BME280;1786;52.870;9.578;2023-02-05T03:45:00;102580.31;;;7.69;59.51
3544;BME280;1786;52.870;9.578;2023-02-05T03:50:25;102576.69;;;7.76;58.94
3544;BME280;1786;52.870;9.578;2023-02-05T03:53:27;102574.22;;;7.66;59.86
3544;BME280;1786;52.870;9.578;2023-02-05T03:56:00;102569.25;;;7.97;59.29
3544;BME280;1786;52.870;9.578;2023-02-05T03:58:40;102576.84;;;7.66;59.80
3544;BME280;1786;52.870;9.578;2023-02-05T04:01:09;102575.63;;;7.84;59.22
3544;BME280;1786;52.870;9.578;2023-02-05T04:03:37;102577.19;;;8.36;58.51
3544;BME280;1786;52.870;9.578;2023-02-05T04:06:05;102562.38;;;8.30;58.13
3544;BME280;1786;52.870;9.578;2023-02-05T04:08:33;102565.09;;;8.27;58.15
3544;BME280;1786;52.870;9.578;2023-02-05T04:11:01;102573.63;;;8.40;58.26
3544;BME280;1786;52.870;9.578;2023-02-05T04:13:28;102580.06;;;8.65;57.14
3544;BME280;1786;52.870;9.578;2023-02-05T04:15:55;102575.63;;;8.68;57.59
3544;BME280;1786;52.870;9.578;2023-02-05T04:18:22;102582.09;;;8.54;57.26
3544;BME280;1786;52.870;9.578;2023-02-05T04:20:49;102575.66;;;8.66;57.38
3544;BME280;1786;52.870;9.578;2023-02-05T04:23:20;102570.84;;;8.85;57.10
3544;BME280;1786;52.870;9.578;2023-02-05T04:25:51;102565.78;;;8.74;57.25
3544;BME280;1786;52.870;9.578;2023-02-05T04:28:21;102565.19;;;8.64;57.34
3544;BME280;1786;52.870;9.578;2023-02-05T04:30:48;102565.22;;;8.61;57.28
3544;BME280;1786;52.870;9.578;2023-02-05T04:33:15;102543.00;;;8.72;57.26
3544;BME280;1786;52.870;9.578;2023-02-05T04:35:42;102537.09;;;8.23;58.39
3544;BME280;1786;52.870;9.578;2023-02-05T04:38:09;102542.25;;;8.28;58.29
3544;BME280;1786;52.870;9.578;2023-02-05T04:40:36;102541.31;;;8.32;57.49
3544;BME280;1786;52.870;9.578;2023-02-05T04:43:02;102542.59;;;8.12;58.14
3544;BME280;1786;52.870;9.578;2023-02-05T04:45:29;102543.59;;;7.63;59.07
3544;BME280;1786;52.870;9.578;2023-02-05T04:47:57;102540.03;;;7.66;59.77
3544;BME280;1786;52.870;9.578;2023-02-05T04:50:25;102531.69;;;7.44;59.96
3544;BME280;1786;52.870;9.578;2023-02-05T04:52:52;102540.41;;;7.46;60.36
3544;BME280;1786;52.870;9.578;2023-02-05T04:55:18;102533.72;;;7.29;60.44
3544;BME280;1786;52.870;9.578;2023-02-05T04:57:45;102544.16;;;7.32;60.84
3544;BME280;1786;52.870;9.578;2023-02-05T05:00:12;102539.50;;;6.99;60.80
3544;BME280;1786;52.870;9.578;2023-02-05T05:02:38;102538.38;;;7.13;60.76
3544;BME280;1786;52.870;9.578;2023-02-05T05:05:05;102533.25;;;7.06;61.19
3544;BME280;1786;52.870;9.578;2023-02-05T05:07:32;102528.66;;;7.17;60.79
3544;BME280;1786;52.870;9.578;2023-02-05T05:09:58;102530.72;;;7.00;61.15
3544;BME280;1786;52.870;9.578;2023-02-05T05:12:25;102520.03;;;6.58;62.27
3544;BME280;1786;52.870;9.578;2023-02-05T05:14:51;102507.75;;;7.11;61.91
3544;BME280;1786;52.870;9.578;2023-02-05T05:17:18;102510.31;;;6.63;62.53
3544;BME280;1786;52.870;9.578;2023-02-05T05:19:45;102513.31;;;6.38;63.19
3544;BME280;1786;52.870;9.578;2023-02-05T05:22:11;102505.22;;;6.52;63.10
3544;BME280;1786;52.870;9.578;2023-02-05T05:24:38;102505.63;;;6.27;63.11
3544;BME280;1786;52.870;9.578;2023-02-05T05:27:04;102509.94;;;6.30;64.01
3544;BME280;1786;52.870;9.578;2023-02-05T05:29:31;102505.94;;;6.62;63.14
3544;BME280;1786;52.870;9.578;2023-02-05T05:31:58;102490.09;;;7.19;61.81
3544;BME280;1786;52.870;9.578;2023-02-05T05:34:25;102478.69;;;6.69;62.47
3544;BME280;1786;52.870;9.578;2023-02-05T05:36:51;102473.84;;;6.44;62.89
3544;BME280;1786;52.870;9.578;2023-02-05T05:39:20;102475.72;;;6.38;63.77
3544;BME280;1786;52.870;9.578;2023-02-05T05:42:05;102466.69;;;6.53;63.46
3544;BME280;1786;52.870;9.578;2023-02-05T05:44:51;102474.88;;;6.88;61.93
3544;BME280;1786;52.870;9.578;2023-02-05T05:47:18;102485.53;;;6.79;62.45
3544;BME280;1786;52.870;9.578;2023-02-05T05:49:45;102488.09;;;6.84;62.18
3544;BME280;1786;52.870;9.578;2023-02-05T05:52:12;102482.06;;;6.77;61.90
3544;BME280;1786;52.870;9.578;2023-02-05T05:54:38;102480.97;;;6.36;63.44
3544;BME280;1786;52.870;9.578;2023-02-05T05:57:06;102487.69;;;7.07;61.95
3544;BME280;1786;52.870;9.578;2023-02-05T05:59:33;102480.81;;;7.45;60.91
3544;BME280;1786;52.870;9.578;2023-02-05T06:02:00;102490.03;;;7.22;61.32
3544;BME280;1786;52.870;9.578;2023-02-05T06:04:27;102486.38;;;7.29;61.45
3544;BME280;1786;52.870;9.578;2023-02-05T06:06:54;102493.00;;;7.92;59.74
3544;BME280;1786;52.870;9.578;2023-02-05T06:09:21;102484.47;;;7.37;61.15
3544;BME280;1786;52.870;9.578;2023-02-05T06:11:47;102486.38;;;7.31;60.70
3544;BME280;1786;52.870;9.578;2023-02-05T06:14:14;102470.31;;;7.45;60.16
3544;BME280;1786;52.870;9.578;2023-02-05T06:16:41;102468.28;;;7.12;60.52
3544;BME280;1786;52.870;9.578;2023-02-05T06:19:07;102472.53;;;6.70;61.82
3544;BME280;1786;52.870;9.578;2023-02-05T06:21:34;102469.66;;;6.85;61.92
3544;BME280;1786;52.870;9.578;2023-02-05T06:24:01;102463.84;;;6.66;62.53
3544;BME280;1786;52.870;9.578;2023-02-05T06:26:28;102460.69;;;6.99;61.72
3544;BME280;1786;52.870;9.578;2023-02-05T06:28:54;102460.91;;;6.85;62.41
3544;BME280;1786;52.870;9.578;2023-02-05T06:31:22;102457.22;;;6.44;63.27
3544;BME280;1786;52.870;9.578;2023-02-05T06:33:49;102450.91;;;6.56;62.82
3544;BME280;1786;52.870;9.578;2023-02-05T06:36:15;102450.06;;;6.52;63.36
3544;BME280;1786;52.870;9.578;2023-02-05T06:38:42;102457.97;;;7.02;62.16
3544;BME280;1786;52.870;9.578;2023-02-05T06:41:08;102465.34;;;6.81;62.23
3544;BME280;1786;52.870;9.578;2023-02-05T06:43:35;102460.75;;;6.92;62.49
3544;BME280;1786;52.870;9.578;2023-02-05T06:46:02;102461.16;;;7.19;61.44
3544;BME280;1786;52.870;9.578;2023-02-05T06:48:28;102461.38;;;7.08;62.13
3544;BME280;1786;52.870;9.578;2023-02-05T06:50:55;102459.25;;;7.27;61.04
3544;BME280;1786;52.870;9.578;2023-02-05T06:53:22;102464.63;;;6.73;61.55
3544;BME280;1786;52.870;9.578;2023-02-05T06:55:48;102462.81;;;6.75;62.24
3544;BME280;1786;52.870;9.578;2023-02-05T06:58:15;102460.75;;;6.96;61.52
3544;BME280;1786;52.870;9.578;2023-02-05T07:00:42;102467.56;;;7.06;61.90
3544;BME280;1786;52.870;9.578;2023-02-05T07:03:08;102463.81;;;7.18;61.26
3544;BME280;1786;52.870;9.578;2023-02-05T07:05:35;102458.78;;;7.05;61.80
3544;BME280;1786;52.870;9.578;2023-02-05T07:08:02;102459.34;;;7.23;61.53
3544;BME280;1786;52.870;9.578;2023-02-05T07:10:31;102458.59;;;6.66;62.20
3544;BME280;1786;52.870;9.578;2023-02-05T07:12:57;102459.47;;;6.67;62.86
3544;BME280;1786;52.870;9.578;2023-02-05T07:15:24;102456.44;;;6.37;62.95
3544;BME280;1786;52.870;9.578;2023-02-05T07:17:51;102451.66;;;6.64;63.06
3544;BME280;1786;52.870;9.578;2023-02-05T07:20:17;102453.69;;;6.46;63.64
3544;BME280;1786;52.870;9.578;2023-02-05T07:22:44;102451.59;;;6.67;62.86
3544;BME280;1786;52.870;9.578;2023-02-05T07:25:12;102448.53;;;6.40;63.22
3544;BME280;1786;52.870;9.578;2023-02-05T07:27:38;102451.06;;;6.45;64.04
3544;BME280;1786;52.870;9.578;2023-02-05T07:30:06;102456.00;;;6.65;63.01
3544;BME280;1786;52.870;9.578;2023-02-05T07:32:32;102459.38;;;6.73;62.94
3544;BME280;1786;52.870;9.578;2023-02-05T07:34:59;102457.28;;;6.92;62.49
3544;BME280;1786;52.870;9.578;2023-02-05T07:37:26;102453.22;;;6.72;62.61
3544;BME280;1786;52.870;9.578;2023-02-05T07:39:52;102443.63;;;7.18;62.26
3544;BME280;1786;52.870;9.578;2023-02-05T07:42:20;102450.44;;;6.83;62.43
3544;BME280;1786;52.870;9.578;2023-02-05T07:44:53;102434.91;;;7.18;62.10
3544;BME280;1786;52.870;9.578;2023-02-05T07:47:19;102444.38;;;7.26;61.83
3544;BME280;1786;52.870;9.578;2023-02-05T07:49:46;102440.53;;;7.43;61.00
3544;BME280;1786;52.870;9.578;2023-02-05T07:52:12;102435.41;;;6.91;62.31
3544;BME280;1786;52.870;9.578;2023-02-05T07:54:39;102440.72;;;6.87;62.65
3544;BME280;1786;52.870;9.578;2023-02-05T07:57:05;102441.22;;;7.09;62.50
3544;BME280;1786;52.870;9.578;2023-02-05T07:59:32;102436.69;;;7.15;62.71
3544;BME280;1786;52.870;9.578;2023-02-05T08:01:59;102443.31;;;7.36;61.90
3544;BME280;1786;52.870;9.578;2023-02-05T08:04:25;102443.84;;;7.54;61.20
3544;BME280;1786;52.870;9.578;2023-02-05T08:06:52;102446.91;;;7.74;60.72
3544;BME280;1786;52.870;9.578;2023-02-05T08:09:18;102447.22;;;7.59;60.72
3544;BME280;1786;52.870;9.578;2023-02-05T08:11:45;102448.16;;;7.56;61.02
3544;BME280;1786;52.870;9.578;2023-02-05T08:14:11;102450.41;;;7.73;60.49
3544;BME280;1786;52.870;9.578;2023-02-05T08:16:38;102449.94;;;7.54;61.28
3544;BME280;1786;52.870;9.578;2023-02-05T08:19:05;102450.22;;;7.41;60.74
3544;BME280;1786;52.870;9.578;2023-02-05T08:21:32;102449.47;;;7.76;60.21
3544;BME280;1786;52.870;9.578;2023-02-05T08:23:59;102453.63;;;7.88;60.43
3544;BME280;1786;52.870;9.578;2023-02-05T08:26:26;102438.31;;;7.66;60.94
3544;BME280;1786;52.870;9.578;2023-02-05T08:28:53;102450.56;;;7.67;60.77
3544;BME280;1786;52.870;9.578;2023-02-05T08:31:20;102451.31;;;7.74;60.67
3544;BME280;1786;52.870;9.578;2023-02-05T08:33:47;102452.66;;;7.51;61.11
3544;BME280;1786;52.870;9.578;2023-02-05T08:36:16;102457.53;;;7.70;61.09
3544;BME280;1786;52.870;9.578;2023-02-05T08:38:42;102459.03;;;7.82;60.84
3544;BME280;1786;52.870;9.578;2023-02-05T08:41:09;102451.91;;;7.87;61.20
3544;BME280;1786;52.870;9.578;2023-02-05T08:43:44;102460.56;;;7.92;60.73
3544;BME280;1786;52.870;9.578;2023-02-05T08:46:13;102454.91;;;7.68;61.10
3544;BME280;1786;52.870;9.578;2023-02-05T08:48:40;102455.41;;;7.86;61.31
3544;BME280;1786;52.870;9.578;2023-02-05T08:51:11;102449.94;;;7.96;60.47
3544;BME280;1786;52.870;9.578;2023-02-05T08:53:39;102450.47;;;8.11;60.29
3544;BME280;1786;52.870;9.578;2023-02-05T08:56:07;102447.25;;;8.37;59.80
3544;BME280;1786;52.870;9.578;2023-02-05T08:58:38;102460.81;;;7.79;60.99
3544;BME280;1786;52.870;9.578;2023-02-05T09:01:10;102469.41;;;7.88;61.45
3544;BME280;1786;52.870;9.578;2023-02-05T09:03:37;102464.97;;;7.91;61.41
3544;BME280;1786;52.870;9.578;2023-02-05T09:06:06;102463.69;;;8.47;60.20
3544;BME280;1786;52.870;9.578;2023-02-05T09:08:33;102476.13;;;8.01;60.35
3544;BME280;1786;52.870;9.578;2023-02-05T09:10:59;102470.81;;;8.04;60.61
3544;BME280;1786;52.870;9.578;2023-02-05T09:13:26;102469.22;;;7.97;60.88
3544;BME280;1786;52.870;9.578;2023-02-05T09:15:53;102471.78;;;8.00;60.79
3544;BME280;1786;52.870;9.578;2023-02-05T09:18:20;102467.69;;;7.87;61.03
3544;BME280;1786;52.870;9.578;2023-02-05T09:20:48;102472.63;;;8.02;61.11
3544;BME280;1786;52.870;9.578;2023-02-05T09:23:16;102478.72;;;8.43;60.18
3544;BME280;1786;52.870;9.578;2023-02-05T09:25:43;102478.41;;;8.91;59.00
3544;BME280;1786;52.870;9.578;2023-02-05T09:28:11;102472.72;;;9.39;58.32
3544;BME280;1786;52.870;9.578;2023-02-05T09:30:41;102474.97;;;9.53;57.57
3544;BME280;1786;52.870;9.578;2023-02-05T09:33:09;102478.72;;;9.75;56.85
3544;BME280;1786;52.870;9.578;2023-02-05T09:35:36;102481.66;;;9.94;56.74
3544;BME280;1786;52.870;9.578;2023-02-05T09:38:03;102485.56;;;9.51;57.12
3544;BME280;1786;52.870;9.578;2023-02-05T09:40:53;102472.44;;;9.80;56.86
3544;BME280;1786;52.870;9.578;2023-02-05T09:48:47;102471.66;;;9.45;57.95
3544;BME280;1786;52.870;9.578;2023-02-05T09:51:21;102471.44;;;9.23;58.47
3544;BME280;1786;52.870;9.578;2023-02-05T09:53:54;102472.69;;;9.08;58.79
3544;BME280;1786;52.870;9.578;2023-02-05T09:56:22;102472.19;;;9.26;59.20
3544;BME280;1786;52.870;9.578;2023-02-05T09:58:51;102477.44;;;9.28;58.73
3544;BME280;1786;52.870;9.578;2023-02-05T10:01:33;102478.00;;;9.06;58.95
3544;BME280;1786;52.870;9.578;2023-02-05T10:04:02;102489.31;;;8.77;59.56
3544;BME280;1786;52.870;9.578;2023-02-05T10:06:45;102493.38;;;9.23;58.94
3544;BME280;1786;52.870;9.578;2023-02-05T10:09:30;102483.41;;;9.66;58.32
3544;BME280;1786;52.870;9.578;2023-02-05T10:12:27;102487.16;;;9.26;59.35
3544;BME280;1786;52.870;9.578;2023-02-05T10:18:03;102495.53;;;8.36;61.07
3544;BME280;1786;52.870;9.578;2023-02-05T10:23:48;102495.44;;;8.78;60.41
3544;BME280;1786;52.870;9.578;2023-02-05T10:26:17;102493.63;;;9.14;59.68
3544;BME280;1786;52.870;9.578;2023-02-05T10:32:00;102499.75;;;9.79;57.54
3544;BME280;1786;52.870;9.578;2023-02-05T10:34:57;102495.28;;;9.49;58.66
3544;BME280;1786;52.870;9.578;2023-02-05T10:37:34;102496.41;;;9.72;58.41
3544;BME280;1786;52.870;9.578;2023-02-05T10:40:13;102501.31;;;9.86;58.16
3544;BME280;1786;52.870;9.578;2023-02-05T10:42:48;102506.53;;;9.87;57.90
3544;BME280;1786;52.870;9.578;2023-02-05T10:45:21;102509.16;;;10.17;57.33
3544;BME280;1786;52.870;9.578;2023-02-05T10:48:12;102507.69;;;9.77;57.53
3544;BME280;1786;52.870;9.578;2023-02-05T10:50:50;102520.38;;;9.95;57.76
3544;BME280;1786;52.870;9.578;2023-02-05T10:53:21;102516.84;;;10.25;56.54
3544;BME280;1786;52.870;9.578;2023-02-05T10:55:49;102513.91;;;10.06;57.02
3544;BME280;1786;52.870;9.578;2023-02-05T11:01:05;102518.06;;;10.13;56.46
3544;BME280;1786;52.870;9.578;2023-02-05T11:03:34;102523.28;;;10.16;56.02
3544;BME280;1786;52.870;9.578;2023-02-05T11:06:02;102516.75;;;10.29;55.94
3544;BME280;1786;52.870;9.578;2023-02-05T11:08:37;102511.50;;;10.56;56.01
3544;BME280;1786;52.870;9.578;2023-02-05T11:11:06;102509.84;;;10.53;56.27
3544;BME280;1786;52.870;9.578;2023-02-05T11:13:38;102521.53;;;10.45;56.18
3544;BME280;1786;52.870;9.578;2023-02-05T11:16:07;102518.59;;;10.26;56.72
3544;BME280;1786;52.870;9.578;2023-02-05T11:18:38;102523.00;;;10.25;56.62
3544;BME280;1786;52.870;9.578;2023-02-05T11:21:07;102526.31;;;10.33;56.51
3544;BME280;1786;52.870;9.578;2023-02-05T11:23:37;102526.81;;;10.15;56.56
3544;BME280;1786;52.870;9.578;2023-02-05T11:26:16;102526.47;;;10.29;56.45
3544;BME280;1786;52.870;9.578;2023-02-05T11:28:43;102529.09;;;10.29;56.77
3544;BME280;1786;52.870;9.578;2023-02-05T11:31:24;102522.25;;;10.20;56.51
3544;BME280;1786;52.870;9.578;2023-02-05T11:36:36;102529.38;;;10.48;56.34
3544;BME280;1786;52.870;9.578;2023-02-05T11:39:04;102538.59;;;10.63;56.79
3544;BME280;1786;52.870;9.578;2023-02-05T11:41:34;102549.38;;;10.56;55.89
3544;BME280;1786;52.870;9.578;2023-02-05T11:44:18;102556.56;;;10.79;56.09
3544;BME280;1786;52.870;9.578;2023-02-05T11:46:46;102547.63;;;10.83;56.11
3544;BME280;1786;52.870;9.578;2023-02-05T11:49:20;102556.50;;;11.34;55.35
3544;BME280;1786;52.870;9.578;2023-02-05T11:51:50;102568.56;;;11.66;54.02
3544;BME280;1786;52.870;9.578;2023-02-05T11:54:20;102585.50;;;11.62;54.25
3544;BME280;1786;52.870;9.578;2023-02-05T11:59:39;102573.38;;;12.05;53.11
3544;BME280;1786;52.870;9.578;2023-02-05T12:04:56;102573.75;;;12.18;53.08
3544;BME280;1786;52.870;9.578;2023-02-05T12:07:25;102572.19;;;12.36;52.28
3544;BME280;1786;52.870;9.578;2023-02-05T12:09:53;102568.69;;;12.36;52.38
3544;BME280;1786;52.870;9.578;2023-02-05T12:18:45;102572.56;;;12.49;52.35
3544;BME280;1786;52.870;9.578;2023-02-05T12:21:32;102558.81;;;12.61;52.08
3544;BME280;1786;52.870;9.578;2023-02-05T12:24:42;102555.41;;;12.80;52.28
3544;BME280;1786;52.870;9.578;2023-02-05T12:32:46;102540.13;;;12.64;53.03
3544;BME280;1786;52.870;9.578;2023-02-05T12:35:28;102543.25;;;12.96;52.68
3544;BME280;1786;52.870;9.578;2023-02-05T12:38:21;102535.09;;;12.80;51.99
3544;BME280;1786;52.870;9.578;2023-02-05T12:41:11;102540.00;;;12.67;52.45
3544;BME280;1786;52.870;9.578;2023-02-05T12:43:46;102540.38;;;12.80;52.95
3544;BME280;1786;52.870;9.578;2023-02-05T12:48:51;102545.78;;;13.19;51.63
3544;BME280;1786;52.870;9.578;2023-02-05T12:57:30;102520.56;;;13.09;52.45
3544;BME280;1786;52.870;9.578;2023-02-05T13:00:10;102517.19;;;12.41;53.40
3544;BME280;1786;52.870;9.578;2023-02-05T13:10:53;102549.72;;;13.11;52.76
3544;BME280;1786;52.870;9.578;2023-02-05T13:13:25;102556.16;;;12.39;54.25
3544;BME280;1786;52.870;9.578;2023-02-05T13:16:09;102559.63;;;12.41;53.71
3544;BME280;1786;52.870;9.578;2023-02-05T13:18:40;102553.72;;;12.11;54.85
3544;BME280;1786;52.870;9.578;2023-02-05T13:21:15;102559.13;;;12.53;54.45
3544;BME280;1786;52.870;9.578;2023-02-05T13:24:25;102559.38;;;12.69;53.81
3544;BME280;1786;52.870;9.578;2023-02-05T13:27:37;102566.38;;;12.92;53.46
3544;BME280;1786;52.870;9.578;2023-02-05T13:30:28;102571.16;;;12.84;53.97
3544;BME280;1786;52.870;9.578;2023-02-05T13:33:00;102569.09;;;12.47;53.85
3544;BME280;1786;52.870;9.578;2023-02-05T13:35:33;102579.22;;;12.59;53.81
3544;BME280;1786;52.870;9.578;2023-02-05T13:46:49;102609.31;;;13.46;52.45
3544;BME280;1786;52.870;9.578;2023-02-05T13:49:45;102613.81;;;13.64;52.13
3544;BME280;1786;52.870;9.578;2023-02-05T14:00:52;102621.66;;;13.25;52.62
3544;BME280;1786;52.870;9.578;2023-02-05T14:03:25;102631.81;;;12.93;53.39
3544;BME280;1786;52.870;9.578;2023-02-05T14:05:52;102646.56;;;12.78;54.10
3544;BME280;1786;52.870;9.578;2023-02-05T14:08:22;102634.41;;;12.73;53.93
3544;BME280;1786;52.870;9.578;2023-02-05T14:11:01;102630.56;;;12.58;53.76
3544;BME280;1786;52.870;9.578;2023-02-05T14:13:30;102635.88;;;12.80;53.81
3544;BME280;1786;52.870;9.578;2023-02-05T14:16:31;102632.41;;;13.00;53.80
3544;BME280;1786;52.870;9.578;2023-02-05T14:26:53;102642.41;;;13.37;52.85
3544;BME280;1786;52.870;9.578;2023-02-05T14:29:39;102650.81;;;13.49;52.86
3544;BME280;1786;52.870;9.578;2023-02-05T14:32:54;102654.88;;;13.35;53.16
3544;BME280;1786;52.870;9.578;2023-02-05T14:35:00;102655.25;;;13.26;52.83
3544;BME280;1786;52.870;9.578;2023-02-05T14:37:38;102644.88;;;12.76;54.02
3544;BME280;1786;52.870;9.578;2023-02-05T14:40:31;102627.00;;;13.03;53.31
3544;BME280;1786;52.870;9.578;2023-02-05T14:43:13;102636.69;;;13.04;53.90
3544;BME280;1786;52.870;9.578;2023-02-05T14:45:44;102634.69;;;12.87;54.04
3544;BME280;1786;52.870;9.578;2023-02-05T14:48:24;102628.66;;;13.06;54.04
3544;BME280;1786;52.870;9.578;2023-02-05T14:51:14;102638.56;;;13.23;53.58
3544;BME280;1786;52.870;9.578;2023-02-05T14:53:53;102638.28;;;13.08;53.56
3544;BME280;1786;52.870;9.578;2023-02-05T14:56:32;102652.31;;;13.34;53.78
3544;BME280;1786;52.870;9.578;2023-02-05T14:59:14;102653.88;;;13.38;53.72
3544;BME280;1786;52.870;9.578;2023-02-05T15:01:46;102660.44;;;13.72;53.19
3544;BME280;1786;52.870;9.578;2023-02-05T15:04:27;102661.06;;;14.18;52.48
3544;BME280;1786;52.870;9.578;2023-02-05T15:07:07;102665.06;;;13.87;52.25
3544;BME280;1786;52.870;9.578;2023-02-05T15:09:58;102666.75;;;14.29;51.66
3544;BME280;1786;52.870;9.578;2023-02-05T15:12:45;102684.25;;;14.54;51.20
3544;BME280;1786;52.870;9.578;2023-02-05T15:15:34;102688.84;;;14.50;51.48
3544;BME280;1786;52.870;9.578;2023-02-05T15:18:10;102685.78;;;14.20;51.43
3544;BME280;1786;52.870;9.578;2023-02-05T15:20:45;102690.94;;;14.04;51.90